Time;durP1;ratioP1;P1;durP2;ratioP2;P2;SDS_P1;SDS_P2;PMS_P1;PMS_P2;Temp;Humidity;BMP_temperature;BMP_pressure;BME280_temperature;BME280_humidity;BME280_pressure;Samples;Min_cycle;Max_cycle;Signal;HPM_P1;HPM_P2
2021/12/22 00:00:49;;;;;;;30.33;13.47;;;;;;;5.05;72.54;101973.38;5075795;28;20224;-67
2021/12/22 00:03:14;;;;;;;28.70;13.70;;;;;;;4.86;72.79;101967.44;5057703;28;20187;-67
2021/12/22 00:05:44;;;;;;;26.27;12.87;;;;;;;4.90;73.55;101968.28;5075856;28;20178;-67
2021/12/22 00:08:12;;;;;;;27.03;13.10;;;;;;;4.71;73.59;101973.78;5075792;28;20190;-67
2021/12/22 00:10:38;;;;;;;23.10;11.30;;;;;;;4.01;74.66;101966.50;5076164;28;20210;-67
2021/12/22 00:13:03;;;;;;;26.33;12.53;;;;;;;4.53;74.11;101981.91;5057776;28;20198;-66
2021/12/22 00:15:29;;;;;;;23.20;12.30;;;;;;;4.36;73.75;101963.53;5075577;28;20229;-66
2021/12/22 00:17:55;;;;;;;20.67;11.43;;;;;;;4.42;73.98;101964.38;5075582;28;20167;-66
2021/12/22 00:20:20;;;;;;;24.40;11.80;;;;;;;4.17;74.55;101963.75;5075922;28;20193;-66
2021/12/22 00:22:45;;;;;;;20.60;11.40;;;;;;;4.32;74.85;101953.91;5075229;28;20199;-66
2021/12/22 00:25:11;;;;;;;19.10;10.73;;;;;;;4.32;74.24;101961.81;5075491;28;20171;-65
2021/12/22 00:27:37;;;;;;;24.97;12.80;;;;;;;4.60;73.87;101970.38;5057347;28;20193;-66
2021/12/22 00:30:03;;;;;;;20.27;11.93;;;;;;;4.61;74.44;101968.59;5057212;28;20666;-66
2021/12/22 00:32:31;;;;;;;21.70;11.87;;;;;;;4.07;74.32;101934.72;5040520;28;20245;-66
2021/12/22 00:34:56;;;;;;;17.37;10.37;;;;;;;3.56;75.67;101948.34;5057381;28;20182;-66
2021/12/22 00:37:24;;;;;;;23.03;11.30;;;;;;;4.40;75.01;101978.47;5075284;28;20171;-66
2021/12/22 00:39:50;;;;;;;24.83;11.37;;;;;;;4.18;75.00;101965.50;5056908;28;20175;-66
2021/12/22 00:42:17;;;;;;;21.53;11.57;;;;;;;4.05;74.79;101952.34;5091467;22;20242;-70
2021/12/22 00:44:43;;;;;;;22.20;12.13;;;;;;;4.30;75.50;101966.25;5055414;28;20168;-69
2021/12/22 00:47:09;;;;;;;29.37;12.03;;;;;;;3.96;75.46;101964.78;5055049;28;20179;-69
2021/12/22 00:49:34;;;;;;;24.80;12.70;;;;;;;3.88;76.00;101971.88;5036738;28;20570;-69
2021/12/22 00:52:00;;;;;;;27.63;12.43;;;;;;;4.02;75.55;101967.38;5054675;28;20202;-69
2021/12/22 00:54:25;;;;;;;32.60;13.77;;;;;;;3.99;75.79;101964.75;5020158;28;20179;-70
2021/12/22 00:56:50;;;;;;;33.30;13.73;;;;;;;3.74;76.15;101964.06;5037638;28;20176;-69
2021/12/22 00:59:17;;;;;;;30.87;13.03;;;;;;;3.94;76.37;101959.50;5036967;28;20620;-70
2021/12/22 01:01:43;;;;;;;39.47;15.83;;;;;;;3.81;75.68;101939.38;5057712;28;20168;-70
2021/12/22 01:04:08;;;;;;;33.57;14.37;;;;;;;4.18;75.47;101952.28;5042070;28;20229;-69
2021/12/22 01:06:35;;;;;;;33.07;14.47;;;;;;;4.05;75.88;101947.06;5054942;28;20544;-70
2021/12/22 01:09:01;;;;;;;38.27;15.43;;;;;;;3.98;76.13;101939.22;5036749;28;20206;-69
2021/12/22 01:11:27;;;;;;;36.90;15.10;;;;;;;3.78;77.26;101947.31;5036618;28;20179;-69
2021/12/22 01:13:52;;;;;;;33.00;13.23;;;;;;;3.76;77.04;101935.88;5054289;28;20200;-69
2021/12/22 01:16:17;;;;;;;30.30;13.30;;;;;;;3.56;76.90;101925.44;5055096;28;20206;-70
2021/12/22 01:18:43;;;;;;;33.97;13.20;;;;;;;4.15;76.28;101962.88;5036485;28;20179;-70
2021/12/22 01:21:16;;;;;;;30.60;11.87;;;;;;;3.64;76.63;101928.03;5036150;28;20176;-69
2021/12/22 01:24:00;;;;;;;33.77;12.40;;;;;;;3.90;76.20;101935.78;5037224;28;20195;-69
2021/12/22 01:26:27;;;;;;;33.33;13.00;;;;;;;4.04;76.06;101933.88;5036140;28;20194;-69
2021/12/22 01:28:53;;;;;;;34.70;14.00;;;;;;;4.19;75.63;101938.19;5036462;28;20661;-69
2021/12/22 01:31:18;;;;;;;31.30;13.50;;;;;;;4.42;75.45;101941.47;5036441;28;20261;-69
2021/12/22 01:33:43;;;;;;;27.53;12.10;;;;;;;4.10;75.27;101922.41;5036320;28;20202;-69
2021/12/22 01:36:09;;;;;;;28.27;12.90;;;;;;;4.67;74.33;101937.66;5036546;28;20183;-69
2021/12/22 01:38:34;;;;;;;30.10;12.17;;;;;;;4.02;74.68;101922.44;5036078;28;20226;-69
2021/12/22 01:41:00;;;;;;;28.63;12.73;;;;;;;4.35;74.43;101940.66;5035951;28;20183;-69
2021/12/22 01:43:25;;;;;;;35.13;14.57;;;;;;;4.28;74.99;101932.78;5019498;28;20691;-69
2021/12/22 01:51:29;;;;;;;28.40;12.90;;;;;;;4.57;74.16;101956.31;5053614;28;20171;-69
2021/12/22 01:53:59;;;;;;;27.47;12.60;;;;;;;4.42;74.11;101945.88;5035505;28;20196;-69
2021/12/22 01:56:27;;;;;;;27.10;10.90;;;;;;;3.99;74.31;101914.56;5035453;28;20160;-69
2021/12/22 01:58:57;;;;;;;23.73;11.53;;;;;;;4.26;74.13;101931.94;5035700;28;20614;-69
2021/12/22 02:01:24;;;;;;;19.17;9.60;;;;;;;4.15;73.76;101925.88;5053427;28;20174;-69
2021/12/22 02:03:50;;;;;;;24.97;10.60;;;;;;;4.04;74.08;101926.81;5053475;28;20188;-69
2021/12/22 02:06:16;;;;;;;19.30;9.80;;;;;;;4.11;74.44;101924.16;5053506;28;20186;-71
2021/12/22 02:08:44;;;;;;;23.73;10.73;;;;;;;3.61;75.40;101928.06;5035169;28;20195;-70
2021/12/22 02:11:10;;;;;;;22.27;10.63;;;;;;;4.05;73.90;101930.34;5035453;28;20177;-70
2021/12/22 02:13:39;;;;;;;20.97;9.70;;;;;;;4.02;73.69;101920.69;5053074;28;20436;-69
2021/12/22 02:16:09;;;;;;;24.20;10.10;;;;;;;4.23;73.26;101940.78;5036157;28;20418;-69
2021/12/22 02:18:37;;;;;;;17.57;9.23;;;;;;;4.17;73.59;101930.25;5035943;28;20583;-70
2021/12/22 02:21:03;;;;;;;21.73;10.17;;;;;;;3.82;74.11;101932.31;5035668;28;20260;-69
2021/12/22 02:23:29;;;;;;;20.10;9.97;;;;;;;3.78;74.29;101915.63;5035171;28;20432;-70
2021/12/22 02:25:59;;;;;;;21.17;10.53;;;;;;;3.75;74.68;101918.28;5035454;28;20194;-69
2021/12/22 02:28:29;;;;;;;21.77;10.27;;;;;;;3.93;74.39;101928.69;5036038;28;20188;-69
2021/12/22 02:30:55;;;;;;;19.10;10.07;;;;;;;4.53;72.46;101923.75;5036295;28;20209;-69
2021/12/22 02:35:55;;;;;;;19.17;10.47;;;;;;;3.59;75.17;101948.31;5035576;28;20182;-69
2021/12/22 02:38:20;;;;;;;24.47;10.27;;;;;;;3.79;74.42;101925.31;5053083;28;20160;-69
2021/12/22 02:40:48;;;;;;;17.10;9.40;;;;;;;3.74;75.16;101942.94;5035125;28;20171;-67
2021/12/22 02:43:20;;;;;;;17.50;9.27;;;;;;;3.99;74.02;101922.47;5052730;28;20631;-68
2021/12/22 02:45:45;;;;;;;18.47;8.73;;;;;;;3.83;73.87;101913.81;5019991;28;20191;-69
2021/12/22 02:48:11;;;;;;;19.73;9.77;;;;;;;3.76;73.77;101912.13;5035214;28;20213;-69
2021/12/22 02:50:36;;;;;;;15.20;8.23;;;;;;;3.28;74.39;101908.91;5052688;28;20560;-69
2021/12/22 02:53:10;;;;;;;18.43;9.03;;;;;;;3.69;74.08;101921.81;5052962;28;20203;-68
2021/12/22 02:56:02;;;;;;;15.53;8.63;;;;;;;4.00;73.09;101914.53;5036118;28;20213;-67
2021/12/22 02:58:57;;;;;;;16.60;8.17;;;;;;;4.04;72.81;101916.25;5039244;28;20385;-69
2021/12/22 03:02:07;;;;;;;16.33;8.07;;;;;;;4.17;72.30;101911.75;5052801;28;20396;-69
2021/12/22 03:04:30;;;;;;;13.73;7.80;;;;;;;4.16;72.20;101912.66;5039583;28;20197;-69
2021/12/22 03:07:02;;;;;;;19.37;8.73;;;;;;;3.89;73.14;101908.47;5035962;28;20401;-70
2021/12/22 03:09:30;;;;;;;14.30;7.77;;;;;;;3.81;73.47;101923.53;5054653;28;20281;-68
2021/12/22 03:11:58;;;;;;;13.90;8.73;;;;;;;4.20;72.51;101924.06;5022056;28;20184;-69
2021/12/22 03:14:24;;;;;;;15.83;7.87;;;;;;;3.89;72.67;101913.75;5038813;28;20194;-68
2021/12/22 03:16:49;;;;;;;15.97;8.10;;;;;;;4.18;71.82;101910.88;5038552;28;20178;-68
2021/12/22 03:19:17;;;;;;;13.97;8.27;;;;;;;4.60;71.32;101917.47;5038500;28;20688;-68
2021/12/22 03:21:43;;;;;;;16.93;8.03;;;;;;;4.12;71.47;101896.84;5056441;28;20664;-68
2021/12/22 03:24:11;;;;;;;13.93;7.40;;;;;;;3.88;71.56;101901.44;5038515;28;20269;-68
2021/12/22 03:26:41;;;;;;;15.20;7.37;;;;;;;3.69;72.47;101895.41;5039061;28;20179;-68
2021/12/22 03:29:08;;;;;;;14.47;7.60;;;;;;;4.15;71.23;101925.88;5040028;28;20815;-68
2021/12/22 03:31:33;;;;;;;11.43;6.40;;;;;;;4.13;70.51;101901.25;5021982;28;20195;-69
2021/12/22 03:33:59;;;;;;;13.03;7.03;;;;;;;4.13;70.38;101899.47;5056924;28;20789;-69
2021/12/22 03:36:24;;;;;;;11.20;7.10;;;;;;;3.82;71.94;101920.00;5056930;28;20606;-70
2021/12/22 03:38:49;;;;;;;13.23;6.97;;;;;;;3.83;71.56;101913.81;5056363;28;20179;-69
2021/12/22 03:41:14;;;;;;;14.97;7.70;;;;;;;3.94;71.43;101917.25;5056245;28;20179;-69
2021/12/22 03:43:40;;;;;;;15.13;7.60;;;;;;;3.85;71.35;101904.13;5038142;28;20308;-69
2021/12/22 03:46:05;;;;;;;15.43;7.73;;;;;;;3.68;71.44;101903.34;5056148;28;20206;-69
2021/12/22 03:48:30;;;;;;;15.27;7.57;;;;;;;3.68;70.80;101883.09;5041050;28;20289;-69
2021/12/22 03:50:56;;;;;;;15.77;7.60;;;;;;;3.74;70.82;101898.06;5063136;28;20595;-70
2021/12/22 03:53:21;;;;;;;16.47;7.57;;;;;;;3.75;71.21;101899.81;5053930;28;20571;-70
2021/12/22 03:55:47;;;;;;;13.80;7.53;;;;;;;4.02;70.87;101910.13;5054650;28;20239;-70
2021/12/22 03:58:12;;;;;;;15.47;7.90;;;;;;;3.88;71.16;101912.00;5047493;28;20219;-70
2021/12/22 04:00:39;;;;;;;14.57;7.83;;;;;;;3.71;71.90;101916.53;5027819;28;20172;-70
2021/12/22 04:03:05;;;;;;;14.27;8.10;;;;;;;3.71;71.01;101903.31;5027493;28;20290;-70
2021/12/22 04:05:31;;;;;;;15.03;7.60;;;;;;;3.96;70.96;101909.31;5038136;28;20474;-70
2021/12/22 04:07:56;;;;;;;16.80;7.50;;;;;;;4.00;69.97;101901.34;5037708;28;20246;-70
2021/12/22 04:10:23;;;;;;;17.10;7.97;;;;;;;4.22;70.32;101911.72;5037894;28;20576;-70
2021/12/22 04:12:52;;;;;;;15.43;8.03;;;;;;;4.11;69.91;101903.91;5021097;28;20197;-69
2021/12/22 04:15:18;;;;;;;15.67;7.97;;;;;;;4.49;68.95;101914.09;5037883;28;20168;-69
2021/12/22 04:17:43;;;;;;;16.63;8.53;;;;;;;4.35;68.99;101886.91;5021627;28;20203;-70
2021/12/22 04:20:10;;;;;;;15.40;7.50;;;;;;;4.39;69.57;101915.06;5055096;28;20496;-70
2021/12/22 04:22:36;;;;;;;17.87;7.63;;;;;;;4.23;69.41;101894.97;5037132;28;20570;-69
2021/12/22 04:25:01;;;;;;;16.73;7.80;;;;;;;3.71;71.56;101893.66;5055151;28;20264;-69
2021/12/22 04:27:26;;;;;;;14.67;7.23;;;;;;;3.88;71.37;101896.16;5055079;28;20647;-69
2021/12/22 04:29:52;;;;;;;12.93;7.00;;;;;;;3.61;71.46;101901.66;5055025;28;20176;-69
2021/12/22 04:32:17;;;;;;;12.03;6.50;;;;;;;3.76;71.40;101902.44;5054833;28;20559;-69
2021/12/22 04:34:42;;;;;;;14.23;6.83;;;;;;;3.78;71.50;101907.69;5037565;28;20179;-69
2021/12/22 04:37:07;;;;;;;11.90;5.70;;;;;;;3.72;70.79;101898.06;5055116;28;20183;-69
2021/12/22 04:39:33;;;;;;;10.30;5.60;;;;;;;3.56;71.10;101900.81;5055420;28;20172;-69
2021/12/22 04:42:01;;;;;;;12.70;6.47;;;;;;;4.03;71.19;101917.16;5054963;28;20744;-69
2021/12/22 04:44:26;;;;;;;10.90;5.97;;;;;;;3.72;70.55;101884.00;5055146;28;20162;-70
2021/12/22 04:46:52;;;;;;;12.10;6.33;;;;;;;3.58;71.34;101892.00;5037167;28;20409;-69
2021/12/22 04:49:17;;;;;;;9.40;6.00;;;;;;;3.14;72.69;101893.16;5054560;28;20622;-69
2021/12/22 04:51:49;;;;;;;12.50;6.43;;;;;;;3.22;72.80;101898.38;5055220;28;20171;-69
2021/12/22 04:54:20;;;;;;;10.60;6.40;;;;;;;3.39;72.26;101891.25;5054979;28;20171;-69
2021/12/22 04:56:45;;;;;;;10.03;5.00;;;;;;;3.10;72.88;101885.28;5054962;28;20409;-69
2021/12/22 04:59:11;;;;;;;13.10;6.33;;;;;;;2.98;73.32;101902.06;5037362;28;20761;-69
2021/12/22 05:01:36;;;;;;;14.07;6.60;;;;;;;2.72;73.57;101877.53;5020400;28;20694;-69
2021/12/22 05:04:01;;;;;;;12.30;5.80;;;;;;;3.42;72.30;101901.78;5054470;28;20601;-69
2021/12/22 05:06:27;;;;;;;10.90;6.47;;;;;;;3.55;72.12;101896.41;5055132;28;20177;-69
2021/12/22 05:08:52;;;;;;;12.53;6.50;;;;;;;3.34;71.85;101871.91;5054324;28;20673;-69
2021/12/22 05:11:17;;;;;;;12.97;6.40;;;;;;;3.42;71.49;101891.25;5036603;28;20521;-70
2021/12/22 05:13:43;;;;;;;10.33;5.63;;;;;;;3.26;71.59;101873.72;5054457;28;20194;-69
2021/12/22 05:16:15;;;;;;;15.23;6.07;;;;;;;3.56;71.34;101887.63;5054189;28;20183;-69
2021/12/22 05:18:58;;;;;;;11.73;6.27;;;;;;;3.09;72.18;101875.63;5038003;28;20501;-70
2021/12/22 05:21:24;;;;;;;10.93;5.57;;;;;;;2.91;72.91;101883.59;5022279;28;20916;-69
2021/12/22 05:23:51;;;;;;;13.93;5.97;;;;;;;3.06;73.18;101905.53;5036296;28;20439;-69
2021/12/22 05:26:17;;;;;;;13.57;6.23;;;;;;;3.26;72.29;101884.28;5036550;28;20457;-69
2021/12/22 05:28:42;;;;;;;11.43;6.17;;;;;;;3.09;72.20;101875.63;5054621;28;20481;-69
2021/12/22 05:31:07;;;;;;;11.93;6.67;;;;;;;3.21;71.94;101878.16;5036141;28;20707;-69
2021/12/22 05:33:32;;;;;;;10.87;5.90;;;;;;;3.31;72.29;101876.34;5053904;28;20198;-69
2021/12/22 05:35:58;;;;;;;11.63;6.60;;;;;;;3.47;71.70;101872.72;5038391;28;20559;-70
2021/12/22 05:38:23;;;;;;;10.63;6.03;;;;;;;3.52;71.09;101870.06;5055166;28;20171;-70
2021/12/22 05:40:49;;;;;;;11.77;6.47;;;;;;;3.35;70.97;101876.34;5037288;28;20207;-70
2021/12/22 05:43:14;;;;;;;9.47;5.63;;;;;;;3.11;72.33;101879.13;5036301;28;20622;-70
2021/12/22 05:45:39;;;;;;;13.97;6.87;;;;;;;3.54;71.38;101873.56;5054661;28;20611;-68
2021/12/22 05:48:05;;;;;;;12.50;6.67;;;;;;;3.45;71.39;101875.38;5036761;28;20627;-69
2021/12/22 05:50:31;;;;;;;13.10;7.10;;;;;;;2.96;72.10;101866.88;5036507;28;20176;-69
2021/12/22 05:52:56;;;;;;;13.40;6.67;;;;;;;3.17;72.32;101892.25;5054596;28;20200;-68
2021/12/22 05:55:21;;;;;;;18.50;7.30;;;;;;;2.83;72.98;101887.16;5056992;28;20209;-69
2021/12/22 05:57:46;;;;;;;11.40;6.97;;;;;;;2.60;72.54;101856.50;5056587;28;20184;-70
2021/12/22 06:00:12;;;;;;;14.10;7.23;;;;;;;2.48;73.18;101882.00;5054998;28;20176;-69
2021/12/22 06:02:38;;;;;;;15.37;7.50;;;;;;;2.51;73.39;101876.72;5055032;28;20203;-69
2021/12/22 06:05:03;;;;;;;13.73;7.80;;;;;;;2.46;73.12;101867.97;5036587;28;20715;-70
2021/12/22 06:07:29;;;;;;;15.80;8.70;;;;;;;2.29;74.08;101887.34;5036873;28;20176;-69
2021/12/22 06:09:54;;;;;;;16.20;7.13;;;;;;;2.21;74.24;101876.81;5054228;28;20205;-69
2021/12/22 06:12:20;;;;;;;14.27;7.63;;;;;;;2.01;74.45;101871.59;5019617;28;20203;-69
2021/12/22 06:14:45;;;;;;;14.87;7.47;;;;;;;1.84;74.89;101875.97;5036451;28;20190;-68
2021/12/22 06:17:10;;;;;;;15.43;8.27;;;;;;;2.26;74.36;101887.34;5054107;28;20185;-69
2021/12/22 06:19:35;;;;;;;17.17;7.60;;;;;;;1.85;74.61;101867.19;5019347;28;20628;-69
2021/12/22 06:22:01;;;;;;;16.90;8.00;;;;;;;2.48;73.81;101889.03;5035896;28;20249;-68
2021/12/22 06:24:26;;;;;;;13.83;7.70;;;;;;;2.81;73.08;101901.22;5053695;28;20187;-70
